Time;durP1;ratioP1;P1;durP2;ratioP2;P2;SDS_P1;SDS_P2;PMS_P1;PMS_P2;Temp;Humidity;BMP_temperature;BMP_pressure;BME280_temperature;BME280_humidity;BME280_pressure;Samples;Min_cycle;Max_cycle;Signal;HPM_P1;HPM_P2
2023/07/05 00:00:22;;;;;;;;;14.50;7.25;;;;;-146.67;53.90;74837.31;5082607;27;62065;-76
2023/07/05 00:02:52;;;;;;;;;7.00;5.25;;;;;-146.67;54.42;74853.28;5081454;27;61939;-76
2023/07/05 00:05:17;;;;;;;;;7.50;7.50;;;;;-146.67;53.48;74835.31;5089380;27;61930;-76
2023/07/05 00:07:43;;;;;;;;;6.50;6.00;;;;;-146.67;54.07;74859.28;5101401;27;61925;-75
2023/07/05 00:10:10;;;;;;;;;4.00;4.00;;;;;-146.67;53.92;74853.28;5101803;27;61822;-76
2023/07/05 00:12:36;;;;;;;;;6.25;4.00;;;;;-146.67;53.89;74861.28;5102129;27;61859;-76
2023/07/05 00:15:03;;;;;;;;;9.00;4.00;;;;;-146.67;54.05;74873.25;5102564;27;61932;-76
2023/07/05 00:17:33;;;;;;;;;8.25;5.00;;;;;-146.67;54.23;74865.28;5102174;27;61900;-77
2023/07/05 00:19:59;;;;;;;;;4.50;4.50;;;;;-146.67;53.19;74847.31;5102167;27;62033;-76
2023/07/05 00:22:26;;;;;;;;;5.25;5.25;;;;;-146.67;53.51;74857.28;5099416;27;64003;-76
2023/07/05 00:24:55;;;;;;;;;7.25;5.25;;;;;-146.67;53.32;74853.28;5100306;27;62414;-76
2023/07/05 00:27:24;;;;;;;;;6.50;4.00;;;;;-146.67;53.52;74845.31;5101794;27;61788;-76
2023/07/05 00:29:53;;;;;;;;;6.50;5.75;;;;;-146.67;53.25;74827.34;5101390;27;61952;-76
2023/07/05 00:32:19;;;;;;;;;5.25;5.25;;;;;-146.67;52.28;74827.34;5099953;27;63594;-76
2023/07/05 00:34:44;;;;;;;;;7.50;4.25;;;;;-146.67;52.30;74827.34;5102324;27;62030;-76
2023/07/05 00:37:10;;;;;;;;;8.75;8.25;;;;;-146.67;51.90;74823.34;5102061;27;61858;-76
2023/07/05 00:39:35;;;;;;;;;13.00;7.25;;;;;-146.67;52.32;74821.34;5102337;27;62159;-76
2023/07/05 00:42:00;;;;;;;;;6.00;6.00;;;;;-146.67;51.33;74803.38;5101772;27;62261;-76
2023/07/05 00:44:29;;;;;;;;;10.50;8.50;;;;;-146.67;51.88;74809.38;5100761;27;62131;-76
2023/07/05 00:47:14;;;;;;;;;11.25;8.00;;;;;-146.67;50.63;74801.38;5102320;27;61945;-76
2023/07/05 00:49:39;;;;;;;;;7.25;7.25;;;;;-146.67;50.90;74829.34;5102502;27;61776;-77
2023/07/05 00:52:11;;;;;;;;;7.75;5.50;;;;;-146.67;51.19;74829.34;5101714;27;61797;-76
2023/07/05 00:54:52;;;;;;;;;5.75;4.00;;;;;-146.67;50.85;74847.31;5100651;27;62044;-76
2023/07/05 00:57:23;;;;;;;;;10.50;7.25;;;;;-146.67;50.84;74851.31;5104475;27;61778;-76
2023/07/05 00:59:57;;;;;;;;;5.25;3.50;;;;;-146.67;50.93;74859.28;5104484;27;61836;-76
2023/07/05 01:02:23;;;;;;;;;7.75;6.00;;;;;-146.67;51.17;74871.25;5104675;27;62080;-76
2023/07/05 01:04:49;;;;;;;;;9.00;8.00;;;;;-146.67;50.89;74879.25;5105632;27;61890;-76
2023/07/05 01:07:15;;;;;;;;;1.50;1.50;;;;;-146.67;51.46;74881.25;5105129;27;61913;-75
2023/07/05 01:09:41;;;;;;;;;8.25;8.25;;;;;-146.67;51.65;74879.25;5104804;27;62000;-75
2023/07/05 01:12:35;;;;;;;;;9.50;8.50;;;;;-146.67;50.82;74875.25;5103718;27;64800;-76
2023/07/05 01:15:09;;;;;;;;;6.75;6.75;;;;;-146.67;50.29;74879.25;5105410;27;61778;-76
2023/07/05 01:17:34;;;;;;;;;10.25;6.00;;;;;-146.67;50.83;74883.25;5104759;27;61816;-76
2023/07/05 01:20:02;;;;;;;;;9.25;6.50;;;;;-146.67;50.66;74885.25;5105732;27;61810;-76
2023/07/05 01:23:02;;;;;;;;;8.00;6.50;;;;;-146.67;50.95;74877.25;5104242;27;61883;-76
2023/07/05 01:25:46;;;;;;;;;8.50;8.50;;;;;-146.67;50.74;74883.25;5105215;27;61976;-76
2023/07/05 01:28:20;;;;;;;;;8.25;5.25;;;;;-146.67;51.01;74869.28;5103729;27;61862;-75
2023/07/05 01:31:15;;;;;;;;;8.00;5.50;;;;;-146.67;50.16;74865.28;5103910;27;61758;-76
2023/07/05 01:33:50;;;;;;;;;5.25;4.00;;;;;-146.67;50.09;74885.25;5102953;27;63841;-76
2023/07/05 01:36:17;;;;;;;;;11.75;5.50;;;;;-146.67;49.88;74879.25;5104801;27;61733;-75
2023/07/05 01:38:43;;;;;;;;;6.25;4.00;;;;;-146.67;50.41;74877.25;5104975;27;61759;-76
2023/07/05 01:41:08;;;;;;;;;6.25;5.00;;;;;-146.67;49.41;74867.28;5105245;27;61876;-76
2023/07/05 01:43:38;;;;;;;;;8.25;7.50;;;;;-146.67;49.81;74843.31;5104291;27;61884;-75
2023/07/05 01:46:23;;;;;;;;;4.75;4.75;;;;;-146.67;48.68;74831.34;5104668;27;61955;-76
2023/07/05 01:48:56;;;;;;;;;4.75;4.00;;;;;-146.67;49.21;74859.28;5104302;27;61690;-76
2023/07/05 01:51:31;;;;;;;;;6.25;6.25;;;;;-146.67;48.18;74865.28;5103462;27;62051;-75
2023/07/05 01:54:09;;;;;;;;;10.00;5.00;;;;;-146.67;48.57;74883.25;5104171;27;63270;-76
2023/07/05 01:56:47;;;;;;;;;6.00;4.25;;;;;-146.67;48.26;74883.25;5104686;27;62065;-76
2023/07/05 01:59:15;;;;;;;;;8.00;5.00;;;;;-146.67;49.23;74893.22;5104812;27;62092;-76
2023/07/05 02:01:43;;;;;;;;;7.25;3.75;;;;;-146.67;47.84;74869.28;5104698;27;62052;-76
2023/07/05 02:04:13;;;;;;;;;4.50;3.00;;;;;-146.67;48.06;74913.19;5102549;27;63970;-76
2023/07/05 02:06:41;;;;;;;;;4.25;3.00;;;;;-146.67;47.58;74927.16;5104213;27;62080;-76
2023/07/05 02:09:07;;;;;;;;;32.50;30.25;;;;;-146.67;47.66;74937.16;5103147;27;62223;-76
2023/07/05 02:11:32;;;;;;;;;3.50;2.25;;;;;-146.67;47.65;74949.13;5104829;27;61944;-76
2023/07/05 02:13:58;;;;;;;;;5.25;1.25;;;;;-146.67;47.62;74947.13;5102471;27;63529;-77
2023/07/05 02:16:23;;;;;;;;;2.75;2.75;;;;;-146.67;47.31;74947.13;5120127;27;62046;-76
2023/07/05 02:18:49;;;;;;;;;3.75;1.75;;;;;-146.67;48.07;74953.13;5103625;27;61896;-76
2023/07/05 02:21:14;;;;;;;;;2.25;2.00;;;;;-146.67;47.54;74957.13;5103956;27;62008;-76
2023/07/05 02:23:40;;;;;;;;;2.00;2.00;;;;;-146.67;47.71;74963.13;5101386;27;63798;-76
2023/07/05 02:26:06;;;;;;;;;4.25;1.50;;;;;-146.67;48.43;74959.13;5098826;27;62285;-75
2023/07/05 02:28:33;;;;;;;;;2.00;2.00;;;;;-146.67;47.57;74959.13;5082878;27;61769;-75
2023/07/05 02:31:04;;;;;;;;;3.00;2.00;;;;;-146.67;48.02;74943.16;5082958;27;62206;-76
2023/07/05 02:33:29;;;;;;;;;2.50;2.00;;;;;-146.67;47.66;74961.13;5081529;27;63743;-76
2023/07/05 02:35:55;;;;;;;;;3.75;3.75;;;;;-146.67;47.93;74959.13;5081661;28;62387;-76
2023/07/05 02:38:20;;;;;;;;;2.00;2.00;;;;;-146.67;48.26;74953.13;5082136;27;61858;-76
2023/07/05 02:40:49;;;;;;;;;2.00;2.00;;;;;-146.67;48.13;74951.13;5083857;27;61695;-75
2023/07/05 02:43:15;;;;;;;;;2.00;2.00;;;;;-146.67;48.41;74955.13;5082910;27;62986;-76
2023/07/05 02:45:40;;;;;;;;;2.75;2.00;;;;;-146.67;48.35;74963.13;5083388;27;61924;-76
2023/07/05 02:48:06;;;;;;;;;4.00;4.00;;;;;-146.67;48.51;74963.13;5082887;28;61775;-75
2023/07/05 02:50:32;;;;;;;;;3.75;3.00;;;;;-146.67;48.35;74965.09;5081932;27;62064;-76
2023/07/05 02:52:57;;;;;;;;;3.00;3.00;;;;;-146.67;47.51;74977.09;5081019;27;64006;-75
2023/07/05 02:55:23;;;;;;;;;1.25;1.25;;;;;-146.67;47.68;74981.09;5083331;28;62093;-76
2023/07/05 02:57:48;;;;;;;;;1.50;1.00;;;;;-146.67;47.63;74979.09;5083183;27;62558;-76
2023/07/05 03:00:14;;;;;;;;;2.00;2.00;;;;;-146.67;48.28;75007.03;5083493;27;62307;-76
2023/07/05 03:02:39;;;;;;;;;3.00;3.00;;;;;-146.67;48.04;75011.03;5082183;27;62782;-76
2023/07/05 03:05:09;;;;;;;;;2.75;2.75;;;;;-146.67;47.93;75007.03;5082870;27;62314;-76
2023/07/05 03:07:36;;;;;;;;;2.00;1.00;;;;;-146.67;48.01;75009.03;5083357;27;62282;-76
2023/07/05 03:10:01;;;;;;;;;9.50;1.75;;;;;-146.67;48.29;75017.03;5098764;27;61988;-76
2023/07/05 03:12:26;;;;;;;;;3.00;2.00;;;;;-146.67;48.52;75009.03;5101580;27;63379;-76
2023/07/05 03:14:52;;;;;;;;;7.00;1.75;;;;;-146.67;47.80;75011.03;5102249;27;62075;-76
2023/07/05 03:17:18;;;;;;;;;4.50;2.00;;;;;-146.67;47.52;75011.03;5101831;27;61983;-76
2023/07/05 03:19:43;;;;;;;;;2.75;1.00;;;;;-146.67;47.74;75017.03;5103360;27;61918;-76
2023/07/05 03:22:09;;;;;;;;;4.00;2.00;;;;;-146.67;47.73;75023.00;5102616;27;63016;-76
2023/07/05 03:24:34;;;;;;;;;0.75;0.25;;;;;-146.67;47.38;75019.03;5103312;27;61987;-76
2023/07/05 03:26:59;;;;;;;;;4.75;1.00;;;;;-146.67;47.13;75027.00;5102015;27;62117;-76
2023/07/05 03:29:25;;;;;;;;;2.00;1.00;;;;;-146.67;47.38;75023.00;5119471;27;61744;-76
2023/07/05 03:31:50;;;;;;;;;0.75;0.75;;;;;-146.67;47.35;75019.03;5102395;27;61864;-76
2023/07/05 03:34:16;;;;;;;;;1.25;0.00;;;;;-146.67;47.38;75031.00;5101435;27;61849;-76
2023/07/05 03:36:41;;;;;;;;;3.50;2.50;;;;;-146.67;47.26;75035.00;5103380;27;61876;-76
2023/07/05 03:39:06;;;;;;;;;0.00;0.00;;;;;-146.67;47.13;75033.00;5103330;27;61858;-75
2023/07/05 03:41:32;;;;;;;;;0.50;0.00;;;;;-146.67;47.25;75037.00;5102737;27;61926;-75
2023/07/05 03:44:02;;;;;;;;;4.00;1.00;;;;;-146.67;47.54;75042.97;5101693;27;61966;-76
2023/07/05 03:46:28;;;;;;;;;1.00;1.00;;;;;-146.67;47.34;75042.97;5102761;27;62202;-76
2023/07/05 03:48:53;;;;;;;;;1.25;1.00;;;;;-146.67;47.24;75050.97;5102613;27;61865;-76
2023/07/05 03:51:21;;;;;;;;;2.00;1.00;;;;;-146.67;47.41;75052.97;5102426;27;62149;-76
2023/07/05 03:53:51;;;;;;;;;1.75;1.75;;;;;-146.67;47.35;75054.97;5102839;27;62051;-76
2023/07/05 03:56:16;;;;;;;;;1.50;0.50;;;;;-146.67;46.78;75050.97;5102855;27;61787;-76
2023/07/05 03:58:42;;;;;;;;;2.00;1.00;;;;;-146.67;47.35;75070.94;5101841;27;61883;-75
2023/07/05 04:01:15;;;;;;;;;3.50;1.25;;;;;-146.67;47.21;75062.94;5091901;27;62734;-75
2023/07/05 04:03:42;;;;;;;;;1.75;1.75;;;;;-146.67;46.91;75064.94;5082176;27;61843;-75
2023/07/05 04:06:07;;;;;;;;;1.50;1.00;;;;;-146.67;47.48;75062.94;5082642;28;62003;-76
2023/07/05 04:08:32;;;;;;;;;2.00;1.00;;;;;-146.67;46.86;75064.94;5085726;27;61889;-76
2023/07/05 04:10:58;;;;;;;;;2.50;1.00;;;;;-146.67;46.68;75066.94;5095047;27;62919;-76
2023/07/05 04:13:24;;;;;;;;;1.00;0.00;;;;;-146.67;47.21;75072.94;5082396;27;61822;-75
2023/07/05 04:16:04;;;;;;;;;2.00;1.00;;;;;-146.67;46.72;75068.94;5081989;27;62081;-76
2023/07/05 04:18:31;;;;;;;;;0.50;0.50;;;;;-146.67;47.07;75072.94;5081661;27;62032;-76
2023/07/05 04:20:57;;;;;;;;;4.00;3.00;;;;;-146.67;47.01;75068.94;5080408;28;63728;-76
2023/07/05 04:23:23;;;;;;;;;4.00;1.00;;;;;-146.67;46.81;75078.91;5082176;28;62000;-76
2023/07/05 04:25:49;;;;;;;;;2.00;1.00;;;;;-146.67;46.83;75088.91;5082429;27;61968;-76
2023/07/05 04:28:14;;;;;;;;;2.50;1.00;;;;;-146.67;47.22;75072.94;5082341;27;62086;-77
2023/07/05 04:30:40;;;;;;;;;1.25;1.25;;;;;-146.67;46.99;75082.91;5081082;28;61911;-75
2023/07/05 04:33:05;;;;;;;;;3.25;1.50;;;;;-146.67;47.20;75086.91;5085423;28;62034;-75
2023/07/05 04:35:31;;;;;;;;;4.00;0.00;;;;;-146.67;46.86;75078.91;5085777;27;61858;-76
2023/07/05 04:37:56;;;;;;;;;1.00;1.00;;;;;-146.67;46.93;75076.94;5085911;27;61876;-76
2023/07/05 04:40:22;;;;;;;;;4.00;2.00;;;;;-146.67;47.10;75070.94;5085083;28;62931;-75
2023/07/05 04:42:47;;;;;;;;;2.00;1.25;;;;;-146.67;46.94;75072.94;5085401;27;61917;-76
2023/07/05 04:45:13;;;;;;;;;2.00;2.00;;;;;-146.67;46.97;75076.94;5085243;28;62549;-76
2023/07/05 04:47:38;;;;;;;;;4.75;2.25;;;;;-146.67;46.84;75070.94;5085012;28;61757;-76
2023/07/05 04:50:04;;;;;;;;;4.00;3.50;;;;;-146.67;47.14;75064.94;5083432;28;63685;-76
2023/07/05 04:52:30;;;;;;;;;4.25;2.25;;;;;-146.67;47.06;75066.94;5085260;28;61951;-75
2023/07/05 04:54:55;;;;;;;;;1.75;1.00;;;;;-146.67;46.66;75068.94;5085088;28;62023;-75
2023/07/05 04:57:21;;;;;;;;;4.00;2.00;;;;;-146.67;46.80;75074.94;5084249;27;61983;-76
2023/07/05 04:59:46;;;;;;;;;1.00;1.00;;;;;-146.67;46.86;75062.94;5084167;27;61805;-75
2023/07/05 05:02:12;;;;;;;;;1.25;0.00;;;;;-146.67;46.93;75058.94;5095240;27;61926;-76
2023/07/05 05:04:37;;;;;;;;;7.00;2.00;;;;;-146.67;46.96;75046.97;5105465;27;61880;-76
2023/07/05 05:07:05;;;;;;;;;3.50;1.50;;;;;-146.67;46.76;75044.97;5105580;27;61962;-76
2023/07/05 05:09:30;;;;;;;;;6.50;2.00;;;;;-146.67;46.90;75056.97;5103933;27;62979;-75
2023/07/05 05:11:56;;;;;;;;;3.00;2.00;;;;;-146.67;46.67;75050.97;5099459;27;61818;-81
2023/07/05 05:14:21;;;;;;;;;2.00;2.00;;;;;-146.67;46.93;75040.97;5084534;28;61906;-76
2023/07/05 05:16:46;;;;;;;;;4.00;2.00;;;;;-146.67;46.78;75037.00;5088553;27;61877;-77
2023/07/05 05:19:12;;;;;;;;;6.00;2.25;;;;;-146.67;46.74;75025.00;5103610;27;61910;-81
2023/07/05 05:21:37;;;;;;;;;4.00;3.00;;;;;-146.67;46.66;75015.03;5104986;27;61806;-81
2023/07/05 05:24:03;;;;;;;;;2.50;2.00;;;;;-146.67;46.72;75007.03;5104993;27;62372;-80
2023/07/05 05:26:28;;;;;;;;;3.25;1.75;;;;;-146.67;46.43;74997.06;5103854;27;61998;-80
2023/07/05 05:28:53;;;;;;;;;4.25;1.50;;;;;-146.67;45.95;74971.09;5103876;27;62974;-82
2023/07/05 05:31:19;;;;;;;;;3.25;2.00;;;;;-146.67;46.14;74951.13;5105067;27;61811;-82
2023/07/05 05:33:46;;;;;;;;;3.75;2.50;;;;;-146.67;45.54;74913.19;5104488;27;61879;-78
2023/07/05 05:36:11;;;;;;;;;3.00;2.50;;;;;-146.67;45.49;74869.28;5105058;27;62272;-79
2023/07/05 05:38:37;;;;;;;;;2.00;2.00;;;;;-146.67;44.77;74785.41;5102145;27;63764;-77
2023/07/05 05:41:10;;;;;;;;;3.00;3.00;;;;;-146.67;43.62;74775.44;5104248;27;61919;-82
2023/07/05 05:43:37;;;;;;;;;3.00;2.00;;;;;-146.67;44.03;74779.41;5110759;27;62248;-81
2023/07/05 05:46:03;;;;;;;;;1.50;1.50;;;;;-146.67;43.05;74671.59;5125354;27;61808;-81
2023/07/05 05:48:28;;;;;;;;;2.75;2.00;;;;;-146.67;42.10;74575.78;5117107;27;64759;-81
2023/07/05 05:50:54;;;;;;;;;5.75;4.75;;;;;-146.67;41.53;74503.91;5104380;27;62061;-80
2023/07/05 05:53:19;;;;;;;;;4.50;2.00;;;;;-146.67;40.98;74459.97;5103245;27;61876;-80
2023/07/05 05:55:45;;;;;;;;;2.50;2.00;;;;;-146.67;40.50;74440.00;5103477;27;62236;-80
2023/07/05 05:58:10;;;;;;;;;3.50;2.50;;;;;-146.67;40.67;74426.03;5103804;27;61790;-81
2023/07/05 06:00:37;;;;;;;;;5.50;3.00;;;;;-146.67;40.04;74446.00;5117811;27;61844;-79
2023/07/05 06:03:03;;;;;;;;;6.00;2.00;;;;;-146.67;40.92;74444.00;5124997;27;61778;-80
2023/07/05 06:05:29;;;;;;;;;4.25;2.00;;;;;-146.67;40.14;74452.00;5118975;27;61824;-82
2023/07/05 06:07:54;;;;;;;;;2.75;2.00;;;;;-146.67;40.38;74495.91;5120303;27;62825;-80
2023/07/05 06:10:22;;;;;;;;;2.25;1.50;;;;;-146.67;41.05;74561.81;5104135;27;61843;-81
2023/07/05 06:12:47;;;;;;;;;4.25;3.25;;;;;-146.67;41.07;74579.78;5097165;27;62112;-77
2023/07/05 06:15:14;;;;;;;;;4.25;3.00;;;;;-146.67;41.95;74609.72;5102218;27;62631;-76
2023/07/05 06:17:40;;;;;;;;;3.50;2.50;;;;;-146.67;41.80;74631.69;5102228;27;62117;-77
2023/07/05 06:20:07;;;;;;;;;3.50;2.00;;;;;-146.67;41.55;74633.69;5103130;27;62026;-77
2023/07/05 06:22:33;;;;;;;;;3.00;2.75;;;;;-146.67;41.65;74607.72;5098139;27;61849;-78
2023/07/05 06:25:02;;;;;;;;;5.00;2.00;;;;;-146.67;41.96;74599.72;5090767;27;61778;-78
2023/07/05 06:27:27;;;;;;;;;2.75;2.50;;;;;-146.67;41.32;74577.78;5116901;27;63788;-80
2023/07/05 06:29:53;;;;;;;;;4.50;2.25;;;;;-146.67;41.53;74587.75;5102911;27;61933;-77
2023/07/05 06:32:19;;;;;;;;;2.00;2.00;;;;;-146.67;40.26;74396.09;5101049;27;61813;-78
2023/07/05 06:34:44;;;;;;;;;3.00;3.00;;;;;-146.67;39.12;74370.16;5103123;27;61963;-80
2023/07/05 06:37:10;;;;;;;;;4.50;2.00;;;;;-146.67;39.81;74471.97;5101771;27;62015;-78
2023/07/05 06:39:37;;;;;;;;;1.00;1.00;;;;;-146.67;39.64;74454.00;5117398;27;61928;-79
2023/07/05 06:42:02;;;;;;;;;1.75;1.50;;;;;-146.67;40.32;74465.97;5101726;27;61940;-87
2023/07/05 06:44:28;;;;;;;;;5.00;2.00;;;;;-146.67;40.32;74495.91;5101389;27;61759;-88
2023/07/05 06:46:53;;;;;;;;;3.25;2.00;;;;;-146.67;40.42;74527.84;5102140;27;62787;-78
2023/07/05 06:49:19;;;;;;;;;4.50;2.00;;;;;-146.67;40.64;74531.84;5100685;27;61726;-78
2023/07/05 06:51:44;;;;;;;;;3.00;3.00;;;;;-146.67;40.75;74533.84;5100800;27;61962;-76
2023/07/05 06:54:09;;;;;;;;;3.50;2.00;;;;;-146.67;41.16;74555.81;5102235;27;62018;-77
2023/07/05 06:56:35;;;;;;;;;3.00;3.00;;;;;-146.67;40.91;74579.78;5101622;27;62042;-76
2023/07/05 06:59:01;;;;;;;;;1.75;1.75;;;;;-146.67;41.45;74587.75;5102890;27;61806;-78
2023/07/05 07:01:26;;;;;;;;;2.00;1.75;;;;;-146.67;41.13;74613.72;5101154;27;61828;-77
2023/07/05 07:03:52;;;;;;;;;2.50;2.50;;;;;-146.67;41.41;74619.69;5102368;27;61901;-77
2023/07/05 07:06:17;;;;;;;;;2.00;2.00;;;;;-146.67;41.57;74625.69;5100904;27;61960;-77
2023/07/05 07:08:43;;;;;;;;;1.00;1.00;;;;;-146.67;41.65;74609.72;5100549;27;61987;-77
2023/07/05 07:11:11;;;;;;;;;2.25;2.25;;;;;-146.67;41.24;74605.72;5102607;27;61945;-77
2023/07/05 07:13:36;;;;;;;;;5.75;3.50;;;;;-146.67;40.85;74603.72;5103013;27;61725;-81
2023/07/05 07:16:08;;;;;;;;;1.25;1.25;;;;;-146.67;41.00;74595.75;5098022;27;61864;-78
2023/07/05 07:18:36;;;;;;;;;2.00;2.00;;;;;-146.67;41.01;74587.75;5098463;27;61973;-81
2023/07/05 07:21:02;;;;;;;;;2.00;2.00;;;;;-146.67;40.75;74599.72;5101526;27;61790;-83
2023/07/05 07:23:28;;;;;;;;;5.00;3.75;;;;;-146.67;41.06;74575.78;5100078;27;61822;-83
2023/07/05 07:26:16;;;;;;;;;2.00;2.00;;;;;-146.67;40.58;74559.81;5100361;27;65068;-82
2023/07/05 07:28:45;;;;;;;;;4.50;2.00;;;;;-146.67;40.82;74553.81;5102744;27;61755;-82
2023/07/05 07:31:10;;;;;;;;;3.25;2.00;;;;;-146.67;40.56;74529.84;5101399;27;61958;-83
2023/07/05 07:33:35;;;;;;;;;3.00;3.00;;;;;-146.67;40.44;74507.91;5100034;27;62195;-82
2023/07/05 07:36:13;;;;;;;;;3.00;2.00;;;;;-146.67;39.75;74505.91;5101715;27;62369;-81
2023/07/05 07:38:39;;;;;;;;;6.00;4.50;;;;;-146.67;40.00;74503.91;5102540;27;61800;-83
2023/07/05 07:41:12;;;;;;;;;3.00;2.00;;;;;-146.67;40.16;74515.88;5102376;27;61919;-82
2023/07/05 07:43:37;;;;;;;;;2.50;2.25;;;;;-146.67;40.24;74525.88;5100464;27;62130;-82
2023/07/05 07:46:08;;;;;;;;;3.00;2.00;;;;;-146.67;40.26;74515.88;5100630;27;63449;-82
2023/07/05 07:48:33;;;;;;;;;5.00;3.25;;;;;-146.67;39.64;74525.88;5100968;27;62472;-82
2023/07/05 07:50:58;;;;;;;;;2.00;1.75;;;;;-146.67;39.64;74555.81;5101452;27;61999;-82
2023/07/05 07:53:24;;;;;;;;;3.00;2.00;;;;;-146.67;39.49;74539.84;5102799;27;61870;-82
2023/07/05 07:55:49;;;;;;;;;2.00;1.25;;;;;-146.67;39.35;74525.88;5102182;27;62030;-81
2023/07/05 07:58:15;;;;;;;;;4.00;2.00;;;;;-146.67;39.69;74501.91;5101548;27;61926;-82
2023/07/05 08:00:40;;;;;;;;;2.00;2.00;;;;;-146.67;39.60;74519.88;5102954;27;62480;-82
2023/07/05 08:03:06;;;;;;;;;2.00;2.00;;;;;-146.67;39.33;74457.97;5102828;27;61855;-82
2023/07/05 08:05:32;;;;;;;;;2.00;2.00;;;;;-146.67;38.59;74438.03;5100976;27;63507;-82
2023/07/05 08:07:57;;;;;;;;;4.75;3.50;;;;;-146.67;38.48;74422.03;5105458;27;61714;-83
2023/07/05 08:10:22;;;;;;;;;2.50;2.00;;;;;-146.67;38.62;74454.00;5086521;27;62407;-82
2023/07/05 08:12:48;;;;;;;;;4.00;3.00;;;;;-146.67;38.84;74465.97;5101624;27;61825;-82
2023/07/05 08:15:13;;;;;;;;;3.50;2.75;;;;;-146.67;38.89;74459.97;5083947;27;63472;-82
2023/07/05 08:17:39;;;;;;;;;1.00;1.00;;;;;-146.67;38.79;74475.94;5095785;27;61770;-82
2023/07/05 08:20:05;;;;;;;;;3.50;2.75;;;;;-146.67;39.06;74463.97;5105348;27;61772;-82
2023/07/05 08:22:31;;;;;;;;;3.75;1.75;;;;;-146.67;38.79;74438.03;5085436;27;61889;-82
2023/07/05 08:24:56;;;;;;;;;2.00;2.00;;;;;-146.67;38.48;74444.00;5100959;27;61763;-82
2023/07/05 08:27:22;;;;;;;;;1.00;1.00;;;;;-146.67;38.65;74432.03;5099040;27;61833;-82
2023/07/05 08:29:47;;;;;;;;;2.00;2.00;;;;;-146.67;38.15;74426.03;5084101;27;61961;-82
2023/07/05 08:32:13;;;;;;;;;3.00;2.50;;;;;-146.67;38.42;74420.06;5085801;27;61862;-82
2023/07/05 08:34:38;;;;;;;;;4.00;2.75;;;;;-146.67;38.17;74420.06;5083528;27;63842;-83
2023/07/05 08:37:04;;;;;;;;;2.00;2.00;;;;;-146.67;37.15;74356.16;5085265;28;61944;-82
2023/07/05 08:39:30;;;;;;;;;3.25;1.25;;;;;-146.67;37.21;74368.16;5085685;27;61818;-83
2023/07/05 08:42:01;;;;;;;;;4.00;3.00;;;;;-146.67;37.18;74400.09;5085424;27;61944;-83
2023/07/05 08:44:39;;;;;;;;;2.25;2.00;;;;;-146.67;37.50;74384.13;5083445;27;63793;-82
2023/07/05 08:47:07;;;;;;;;;2.25;2.25;;;;;-146.67;37.94;74378.13;5083253;28;61806;-82
2023/07/05 08:50:06;;;;;;;;;7.50;2.75;;;;;-146.67;37.07;74388.09;5085193;27;61901;-83
2023/07/05 08:52:37;;;;;;;;;10.75;2.00;;;;;-146.67;37.31;74402.09;5085139;27;62374;-83
2023/07/05 08:55:08;;;;;;;;;3.00;2.00;;;;;-146.67;37.18;74384.13;5084345;27;61994;-82
2023/07/05 08:57:49;;;;;;;;;0.00;0.00;;;;;-146.67;37.38;74378.13;5083973;27;61826;-83
2023/07/05 09:00:21;;;;;;;;;2.00;2.00;;;;;-146.67;37.13;74378.13;5083485;27;61821;-82
2023/07/05 09:02:46;;;;;;;;;2.00;1.75;;;;;-146.67;37.07;74350.19;5083836;28;61758;-82
2023/07/05 09:05:21;;;;;;;;;3.50;3.00;;;;;-146.67;37.15;74326.22;5083926;27;61996;-82
2023/07/05 09:07:55;;;;;;;;;2.00;2.00;;;;;-146.67;36.65;74324.22;5085123;27;61904;-82
2023/07/05 09:10:42;;;;;;;;;2.75;1.00;;;;;-146.67;36.79;74332.22;5104130;27;62043;-82
2023/07/05 09:13:14;;;;;;;;;2.25;2.25;;;;;-146.67;37.02;74340.19;5103970;27;62166;-82
2023/07/05 09:16:05;;;;;;;;;2.00;2.00;;;;;-146.67;36.90;74326.22;5103278;27;63798;-82
2023/07/05 09:18:49;;;;;;;;;2.50;2.50;;;;;-146.67;36.94;74314.25;5102631;27;61819;-83
2023/07/05 09:21:23;;;;;;;;;2.75;2.00;;;;;-146.67;36.73;74324.22;5104860;27;61720;-83
2023/07/05 09:23:54;;;;;;;;;5.75;2.75;;;;;-146.67;36.96;74336.19;5105363;27;61803;-82
2023/07/05 09:26:35;;;;;;;;;5.00;3.50;;;;;-146.67;37.24;74372.13;5104501;27;62977;-83
2023/07/05 09:29:22;;;;;;;;;3.75;2.50;;;;;-146.67;37.38;74396.09;5103431;27;61917;-83
2023/07/05 09:31:49;;;;;;;;;2.50;1.25;;;;;-146.67;37.13;74398.09;5105040;27;61908;-83
2023/07/05 09:34:29;;;;;;;;;5.00;2.00;;;;;-146.67;37.26;74406.06;5104594;27;61946;-82
2023/07/05 09:36:55;;;;;;;;;2.50;2.50;;;;;-146.67;36.86;74388.09;5102834;27;64947;-83
2023/07/05 09:39:32;;;;;;;;;4.75;2.00;;;;;-146.67;36.46;74370.16;5104882;27;62083;-82
2023/07/05 09:42:03;;;;;;;;;0.00;0.00;;;;;-146.67;36.29;74338.19;5104895;27;61885;-82
2023/07/05 09:44:30;;;;;;;;;6.50;2.25;;;;;-146.67;35.95;74300.28;5104945;27;61682;-82
2023/07/05 09:46:56;;;;;;;;;3.00;3.00;;;;;-146.67;35.66;74294.28;5104342;27;62162;-81
2023/07/05 09:49:22;;;;;;;;;1.25;1.25;;;;;-146.67;35.78;74322.22;5103813;27;61825;-82
2023/07/05 09:51:47;;;;;;;;;1.50;1.50;;;;;-146.67;35.68;74332.22;5104464;27;61860;-82
2023/07/05 09:54:23;;;;;;;;;4.00;2.50;;;;;-146.67;35.73;74326.22;5104674;27;61919;-83
2023/07/05 09:57:24;;;;;;;;;0.75;0.75;;;;;-146.67;36.51;74326.22;5104103;27;61874;-82
2023/07/05 09:59:52;;;;;;;;;3.50;3.00;;;;;-146.67;35.68;74322.22;5099665;27;61930;-82
2023/07/05 10:02:22;;;;;;;;;2.75;1.50;;;;;-146.67;35.37;74316.25;5104369;27;62059;-82
2023/07/05 10:04:53;;;;;;;;;5.00;2.00;;;;;-146.67;35.66;74304.25;5104000;27;61784;-83
2023/07/05 10:07:24;;;;;;;;;1.25;1.25;;;;;-146.67;35.22;74316.25;5102383;27;64962;-81
2023/07/05 10:09:59;;;;;;;;;2.25;1.75;;;;;-146.67;35.94;74366.16;5102886;27;61841;-83
2023/07/05 10:12:30;;;;;;;;;2.75;2.00;;;;;-146.67;36.87;74412.06;5103223;27;61884;-82
2023/07/05 10:14:56;;;;;;;;;2.75;2.75;;;;;-146.67;37.24;74396.09;5104606;27;61933;-82
2023/07/05 10:17:23;;;;;;;;;2.50;2.00;;;;;-146.67;36.48;74352.19;5101706;27;64033;-83
2023/07/05 10:19:51;;;;;;;;;2.25;1.75;;;;;-146.67;35.99;74304.25;5103940;27;61957;-82
2023/07/05 10:22:28;;;;;;;;;2.75;2.25;;;;;-146.67;35.64;74260.34;5102778;27;61952;-82
2023/07/05 10:25:01;;;;;;;;;4.50;2.00;;;;;-146.67;35.00;74174.50;5104453;27;61941;-82
2023/07/05 10:27:36;;;;;;;;;2.00;1.75;;;;;-146.67;34.39;74142.56;5103758;27;62070;-82
2023/07/05 10:30:13;;;;;;;;;3.00;3.00;;;;;-146.67;34.81;74184.47;5101804;27;61883;-82
2023/07/05 10:32:42;;;;;;;;;3.25;2.50;;;;;-146.67;34.74;74148.56;5103728;27;62019;-82
2023/07/05 10:35:28;;;;;;;;;2.50;2.00;;;;;-146.67;34.99;74150.53;5104062;27;62011;-82
2023/07/05 10:37:54;;;;;;;;;1.75;1.50;;;;;-146.67;34.54;74142.56;5102052;27;63899;-82
2023/07/05 10:40:22;;;;;;;;;1.50;1.50;;;;;-146.67;34.10;74128.59;5102373;27;61748;-82
2023/07/05 10:42:54;;;;;;;;;5.50;2.75;;;;;-146.67;34.42;74112.63;5102555;27;62011;-83
2023/07/05 10:45:22;;;;;;;;;4.25;3.50;;;;;-146.67;33.77;74114.63;5103957;27;61951;-82
2023/07/05 10:47:52;;;;;;;;;2.00;1.75;;;;;-146.67;34.17;74108.63;5102315;27;62865;-83
2023/07/05 10:50:26;;;;;;;;;4.75;2.75;;;;;-146.67;33.78;74084.66;5102265;27;61663;-83
2023/07/05 10:53:14;;;;;;;;;2.25;2.25;;;;;-146.67;33.38;74116.59;5102452;27;61856;-84
2023/07/05 10:56:05;;;;;;;;;5.00;3.50;;;;;-146.67;34.42;74106.63;5103589;27;62025;-83
2023/07/05 10:58:48;;;;;;;;;3.50;2.75;;;;;-146.67;34.24;74078.69;5103126;27;62589;-82
2023/07/05 11:01:30;;;;;;;;;1.50;1.50;;;;;-146.67;32.66;74048.75;5103202;27;61896;-82
2023/07/05 11:04:24;;;;;;;;;1.50;1.50;;;;;-146.67;32.93;74020.78;5103459;27;61727;-82
2023/07/05 11:06:52;;;;;;;;;0.75;0.75;;;;;-146.67;32.93;73978.88;5098761;27;61876;-82
2023/07/05 11:09:18;;;;;;;;;4.50;2.25;;;;;-146.67;32.70;73942.94;5101265;27;63831;-83
2023/07/05 11:11:55;;;;;;;;;3.00;3.00;;;;;-146.67;32.32;73893.03;5102105;27;62006;-82
2023/07/05 11:14:23;;;;;;;;;3.00;1.33;;;;;-146.67;31.90;73879.06;5102023;27;61799;-83
2023/07/05 11:16:49;;;;;;;;;3.75;1.25;;;;;-146.67;32.43;73889.03;5101968;27;62105;-82
2023/07/05 11:19:22;;;;;;;;;4.25;3.25;;;;;-146.67;32.13;73875.06;5101877;27;62766;-82
2023/07/05 11:21:51;;;;;;;;;4.25;1.75;;;;;-146.67;31.54;73889.03;5103635;27;61616;-83
2023/07/05 11:24:25;;;;;;;;;3.50;2.50;;;;;-146.67;32.26;73865.09;5103103;27;61692;-82